Macklin, Canada
Current Conditions -  °F | °C
As of 2:00 AM on Sunday 26 Oct 2014 (Local Time) from CYKY Reporting Station
Broken Clouds Broken Clouds  
Wind Chill: 36°   Ceiling: 24000
Heat Index: 43°   Visibility: 15mi
Dew Point: 32°   Wind: 13mph
Humidity: 66%   Direction: 120°ESE
Pressure: 29.49"   Gusts: NA
Location:  52.33°N, 109.95°W
Report Text: CYKY 260800Z 12011KT 15SM FEW050 BKN240 06/00 A2949 RMK SC2CI3 SLP998
Loading
Personal Weather Stations






























Interactive Weather Map New forecast layout! Learn more

10-Day Weather Forecast

Advertisements
Track Severe Weather on mobile